Belfast, Maine
Current Conditions -  °F | °C
As of 10:15 AM on Monday 24 Nov 2014 (Local Time) from KRKD Reporting Station
Overcast Overcast  
Wind Chill: 54°   Ceiling: 800
Heat Index: 54°   Visibility: 6mi
Dew Point: 54°   Wind: 15mph
Humidity: 100%   Direction: 150°SSE
Pressure: 29.82"   Gusts: 26mph
Location:  44.42°N, 69.02°W
Report Text: KRKD 241515Z AUTO 15013G23KT 6SM BKN008 OVC015 12/12 A2982 RMK AO1 P0001
Loading
Personal Weather Stations






























Interactive Weather Map New forecast layout! Learn more

10-Day Weather Forecast

Advertisements
Track Severe Weather on mobile